createdAt,value
2023-04-28T00:00:04.411Z,6.18
2023-04-28T00:02:32.066Z,8.57
2023-04-28T00:04:59.926Z,9.07
2023-04-28T00:07:27.620Z,7.28
2023-04-28T00:09:56.766Z,6.25
2023-04-28T00:12:25.004Z,7.78
2023-04-28T00:14:52.439Z,6.95
2023-04-28T00:17:21.250Z,6.28
2023-04-28T00:19:49.492Z,8.52
2023-04-28T00:22:17.007Z,7.20
2023-04-28T00:24:44.521Z,7.15
2023-04-28T00:27:12.131Z,7.35
2023-04-28T00:29:39.594Z,5.88
2023-04-28T00:32:07.265Z,7.47
2023-04-28T00:34:37.279Z,5.32
2023-04-28T00:37:04.790Z,7.82
2023-04-28T00:39:32.244Z,5.22
2023-04-28T00:41:59.730Z,5.35
2023-04-28T00:44:27.232Z,7.28
2023-04-28T00:46:55.251Z,6.55
2023-04-28T00:49:22.765Z,6.03
2023-04-28T00:51:51.609Z,5.13
2023-04-28T00:54:19.592Z,10.25
2023-04-28T00:56:47.800Z,7.10
2023-04-28T00:59:15.313Z,7.05
2023-04-28T01:01:42.918Z,6.70
2023-04-28T01:04:10.570Z,5.57
2023-04-28T01:06:39.225Z,6.82
2023-04-28T01:09:08.065Z,4.60
2023-04-28T01:11:36.858Z,6.50
2023-04-28T01:14:04.544Z,6.20
2023-04-28T01:16:33.490Z,6.07
2023-04-28T01:19:01.531Z,7.93
2023-04-28T01:21:30.336Z,3.88
2023-04-28T01:23:59.185Z,8.18
2023-04-28T01:26:26.815Z,5.07
2023-04-28T01:28:54.291Z,5.22
2023-04-28T01:31:21.889Z,5.45
2023-04-28T01:33:49.466Z,9.23
2023-04-28T01:36:16.944Z,4.75
2023-04-28T01:38:44.387Z,5.35
2023-04-28T01:41:13.216Z,5.28
2023-04-28T01:43:40.702Z,5.47
2023-04-28T01:46:08.188Z,5.60
2023-04-28T01:48:35.747Z,5.75
2023-04-28T01:51:03.246Z,6.40
2023-04-28T01:53:31.029Z,5.35
2023-04-28T01:55:58.497Z,5.13
2023-04-28T01:58:27.292Z,5.13
2023-04-28T02:00:54.789Z,9.43
2023-04-28T02:03:22.409Z,4.45
2023-04-28T02:05:50.086Z,7.13
2023-04-28T02:08:17.573Z,5.60
2023-04-28T02:10:45.566Z,5.82
2023-04-28T02:13:13.091Z,8.27
2023-04-28T02:15:42.556Z,4.15
2023-04-28T02:18:10.111Z,7.72
2023-04-28T02:20:37.604Z,8.60
2023-04-28T02:23:05.094Z,6.53
2023-04-28T02:25:32.547Z,5.20
2023-04-28T02:28:00.213Z,5.65
2023-04-28T02:30:27.646Z,5.93
2023-04-28T02:32:56.469Z,7.30
2023-04-28T02:35:23.985Z,5.93
2023-04-28T02:37:52.327Z,5.15
2023-04-28T02:40:20.042Z,8.93
2023-04-28T02:42:47.599Z,7.40
2023-04-28T02:45:15.145Z,5.38
2023-04-28T02:47:42.601Z,5.97
2023-04-28T02:50:11.842Z,7.00
2023-04-28T02:52:39.301Z,4.95
2023-04-28T02:55:07.758Z,7.32
2023-04-28T02:57:35.235Z,6.75
2023-04-28T03:00:02.787Z,6.00
2023-04-28T03:02:30.474Z,5.03
2023-04-28T03:04:58.137Z,6.57
2023-04-28T03:07:27.010Z,6.60
2023-04-28T03:09:54.473Z,6.18
2023-04-28T03:12:21.910Z,7.93
2023-04-28T03:14:49.434Z,4.97
2023-04-28T03:17:16.952Z,5.88
2023-04-28T03:19:44.467Z,6.90
2023-04-28T03:22:11.941Z,5.38
2023-04-28T03:24:40.703Z,5.47
2023-04-28T03:27:08.144Z,4.65
2023-04-28T03:29:35.943Z,6.18
2023-04-28T03:32:03.486Z,5.65
2023-04-28T03:34:30.951Z,5.93
2023-04-28T03:36:58.423Z,7.20
2023-04-28T03:39:26.006Z,6.65
2023-04-28T03:41:54.817Z,6.15
2023-04-28T03:44:23.405Z,6.25
2023-04-28T03:49:18.325Z,4.32
2023-04-28T03:51:45.782Z,6.47
2023-04-28T03:54:13.316Z,5.85
2023-04-28T03:56:41.326Z,6.65
2023-04-28T03:59:11.656Z,5.68
2023-04-28T04:01:39.106Z,5.95
2023-04-28T04:04:06.969Z,7.60
2023-04-28T04:06:34.750Z,8.32
2023-04-28T04:09:02.727Z,9.95
2023-04-28T04:11:30.187Z,6.70
2023-04-28T04:13:57.621Z,5.07
2023-04-28T04:16:26.818Z,5.22
2023-04-28T04:18:54.414Z,5.25
2023-04-28T04:21:21.964Z,5.07
2023-04-28T04:23:49.439Z,5.15
2023-04-28T04:26:16.950Z,7.03
2023-04-28T04:28:44.402Z,6.93
2023-04-28T04:31:12.359Z,4.32
2023-04-28T04:33:41.260Z,11.25
2023-04-28T04:36:09.097Z,7.47
2023-04-28T04:38:36.563Z,7.03
2023-04-28T04:41:04.055Z,7.90
2023-04-28T04:43:31.510Z,4.10
2023-04-28T04:45:58.983Z,6.18
2023-04-28T04:48:26.420Z,5.75
2023-04-28T04:50:55.253Z,6.60
2023-04-28T04:53:22.732Z,6.63
2023-04-28T04:55:50.301Z,11.00
2023-04-28T04:58:17.914Z,5.63
2023-04-28T05:00:45.358Z,9.43
2023-04-28T05:03:13.242Z,13.05
2023-04-28T05:05:41.354Z,7.00
2023-04-28T05:08:10.516Z,7.85
2023-04-28T05:10:38.071Z,7.75
2023-04-28T05:13:05.622Z,5.80
2023-04-28T05:15:33.073Z,6.97
2023-04-28T05:18:00.708Z,9.05
2023-04-28T05:20:28.180Z,5.57
2023-04-28T05:22:55.660Z,7.47
2023-04-28T05:25:24.500Z,6.10
2023-04-28T05:27:51.998Z,8.05
2023-04-28T05:30:19.454Z,6.95
2023-04-28T05:32:46.917Z,6.47
2023-04-28T05:35:15.085Z,7.10
2023-04-28T05:37:43.476Z,7.13
2023-04-28T05:40:11.854Z,5.28
2023-04-28T05:42:40.711Z,6.00
2023-04-28T05:45:09.411Z,5.68
2023-04-28T05:47:36.905Z,7.05
2023-04-28T05:50:04.747Z,6.38
2023-04-28T05:52:32.243Z,6.72
2023-04-28T05:54:59.684Z,6.85
2023-04-28T05:57:27.341Z,7.75
2023-04-28T05:59:56.156Z,9.65
2023-04-28T06:02:24.231Z,5.95
2023-04-28T06:04:53.209Z,7.03
2023-04-28T06:07:21.422Z,5.55
2023-04-28T06:09:51.664Z,7.35
2023-04-28T06:12:22.060Z,6.85
2023-04-28T06:14:49.643Z,7.03
2023-04-28T06:17:18.464Z,7.00
2023-04-28T06:19:45.928Z,5.97
2023-04-28T06:22:14.053Z,7.18
2023-04-28T06:24:41.711Z,7.82
2023-04-28T06:27:09.204Z,9.35
2023-04-28T06:29:36.658Z,5.43
2023-04-28T06:32:04.198Z,6.95
2023-04-28T06:34:33.052Z,7.97
2023-04-28T06:37:00.545Z,7.88
2023-04-28T06:39:28.257Z,11.30
2023-04-28T06:41:55.728Z,6.00
2023-04-28T06:44:23.157Z,4.57
2023-04-28T06:46:50.791Z,10.73
2023-04-28T06:49:18.230Z,10.35
2023-04-28T06:51:47.404Z,11.35
2023-04-28T06:54:15.091Z,9.32
2023-04-28T06:56:42.745Z,8.90
2023-04-28T06:59:10.309Z,8.27
2023-04-28T07:01:37.813Z,10.95
2023-04-28T07:04:05.615Z,5.38
2023-04-28T07:06:33.208Z,7.20
2023-04-28T07:09:02.369Z,7.90
2023-04-28T07:11:29.813Z,7.13
2023-04-28T07:13:57.366Z,6.78
2023-04-28T07:16:24.886Z,9.75
2023-04-28T07:18:52.384Z,7.25
2023-04-28T07:21:19.957Z,8.23
2023-04-28T07:23:48.884Z,8.23
2023-04-28T07:26:17.770Z,8.02
2023-04-28T07:28:45.414Z,7.30
2023-04-28T07:31:12.983Z,9.13
2023-04-28T07:33:40.652Z,8.75
2023-04-28T07:36:08.665Z,8.73
2023-04-28T07:38:38.814Z,9.23
2023-04-28T07:41:08.770Z,8.25
2023-04-28T07:43:40.299Z,10.65
2023-04-28T07:46:08.143Z,6.85
2023-04-28T07:48:35.977Z,7.43
2023-04-28T07:51:03.464Z,8.30
2023-04-28T07:53:30.913Z,6.68
2023-04-28T07:55:58.608Z,8.73
2023-04-28T07:58:26.096Z,9.27
2023-04-28T08:00:54.920Z,5.13
2023-04-28T08:03:22.440Z,8.60
2023-04-28T08:05:50.065Z,3.90
2023-04-28T08:08:17.615Z,8.50
2023-04-28T08:10:45.155Z,6.97
2023-04-28T08:13:12.840Z,10.60
2023-04-28T08:15:40.366Z,5.78
2023-04-28T08:18:09.720Z,7.22
2023-04-28T08:20:37.231Z,8.73
2023-04-28T08:23:04.782Z,8.00
2023-04-28T08:25:32.295Z,7.60
2023-04-28T08:28:00.051Z,7.82
2023-04-28T08:30:27.690Z,9.07
2023-04-28T08:32:55.231Z,8.57
2023-04-28T08:35:24.173Z,10.15
2023-04-28T08:37:53.087Z,7.93
2023-04-28T08:40:20.780Z,7.47
2023-04-28T08:42:53.819Z,5.15
2023-04-28T08:45:22.773Z,11.63
2023-04-28T08:47:51.024Z,7.18
2023-04-28T08:50:22.762Z,7.88
2023-04-28T08:52:53.546Z,7.32
2023-04-28T08:55:21.800Z,11.48
2023-04-28T08:57:51.397Z,8.57
2023-04-28T09:00:19.507Z,9.27
2023-04-28T09:02:47.254Z,7.47
2023-04-28T09:05:15.336Z,8.20
2023-04-28T09:07:46.901Z,10.32
2023-04-28T09:10:21.134Z,11.43
2023-04-28T09:12:49.904Z,11.00
2023-04-28T09:15:27.766Z,10.65
2023-04-28T09:17:55.487Z,7.70
2023-04-28T09:20:24.176Z,9.27
2023-04-28T09:22:53.740Z,8.95
2023-04-28T09:25:23.506Z,9.60
2023-04-28T09:27:51.274Z,9.57
2023-04-28T09:30:20.059Z,6.25
2023-04-28T09:33:04.853Z,7.35
2023-04-28T09:35:40.268Z,6.28
2023-04-28T09:38:07.792Z,6.38
2023-04-28T09:40:50.919Z,9.40
2023-04-28T09:43:28.967Z,9.50
2023-04-28T09:45:57.491Z,11.98
2023-04-28T09:48:30.650Z,12.05
2023-04-28T09:50:59.080Z,19.35
2023-04-28T09:53:26.930Z,13.13
2023-04-28T09:55:58.081Z,8.38
2023-04-28T09:58:26.766Z,10.70
2023-04-28T10:00:56.002Z,9.95
2023-04-28T10:03:27.631Z,9.95
2023-04-28T10:05:58.737Z,10.73
2023-04-28T10:08:27.810Z,2.90
2023-04-28T10:10:57.712Z,8.15
2023-04-28T10:13:25.949Z,12.73
2023-04-28T10:15:55.359Z,10.70
2023-04-28T10:18:24.050Z,12.02
2023-04-28T10:20:57.382Z,11.23
2023-04-28T10:24:05.689Z,14.02
2023-04-28T10:27:03.055Z,8.65
2023-04-28T10:29:32.584Z,9.93
2023-04-28T10:32:23.295Z,11.73
2023-04-28T10:34:52.496Z,14.75
2023-04-28T10:37:20.360Z,0.93
2023-04-28T10:40:25.818Z,11.35
2023-04-28T10:42:56.205Z,7.97
2023-04-28T10:46:01.842Z,10.93
2023-04-28T10:48:54.908Z,10.93
2023-04-28T10:51:24.352Z,12.18
2023-04-28T10:54:25.866Z,10.63
2023-04-28T10:57:21.729Z,10.05
2023-04-28T10:59:51.360Z,10.85
2023-04-28T11:02:44.433Z,11.50
2023-04-28T11:05:20.166Z,14.98
2023-04-28T11:08:34.033Z,8.57
2023-04-28T11:11:21.612Z,15.32
2023-04-28T11:13:50.654Z,8.32
2023-04-28T11:16:28.477Z,9.52
2023-04-28T11:19:04.583Z,7.47
2023-04-28T11:21:33.896Z,10.18
2023-04-28T11:24:01.950Z,12.15
2023-04-28T11:26:30.173Z,3.63
2023-04-28T11:28:59.571Z,8.68
2023-04-28T11:31:28.729Z,8.82
2023-04-28T11:34:03.506Z,5.13
2023-04-28T11:39:00.732Z,7.32
2023-04-28T11:41:28.253Z,4.47
2023-04-28T11:43:55.761Z,9.02
2023-04-28T11:46:24.627Z,8.02
2023-04-28T11:49:04.385Z,8.65
2023-04-28T11:51:33.570Z,8.75
2023-04-28T11:54:01.889Z,9.55
2023-04-28T11:56:29.932Z,10.55
2023-04-28T11:59:05.445Z,11.38
2023-04-28T12:01:34.082Z,10.23
2023-04-28T12:04:03.454Z,7.72
2023-04-28T12:06:31.097Z,9.90
2023-04-28T12:09:04.134Z,9.57
2023-04-28T12:11:32.063Z,9.20
2023-04-28T12:14:09.998Z,8.80
2023-04-28T12:16:43.046Z,4.78
2023-04-28T12:19:12.879Z,6.85
2023-04-28T12:21:40.986Z,10.15
2023-04-28T12:24:19.658Z,9.43
2023-04-28T12:26:48.019Z,6.72
2023-04-28T12:29:40.656Z,11.57
2023-04-28T12:32:09.660Z,10.18
2023-04-28T12:34:39.664Z,9.20
2023-04-28T12:37:07.411Z,8.85
2023-04-28T12:39:40.351Z,8.68
2023-04-28T12:42:08.536Z,9.13
2023-04-28T12:44:37.821Z,7.65
2023-04-28T12:47:07.756Z,6.82
2023-04-28T12:49:36.054Z,8.65
2023-04-28T12:52:06.595Z,9.63
2023-04-28T12:54:34.086Z,7.93
2023-04-28T12:57:02.001Z,7.00
2023-04-28T12:59:29.803Z,6.30
2023-04-28T13:01:57.356Z,9.00
2023-04-28T13:04:25.125Z,9.63
2023-04-28T13:06:54.291Z,7.47
2023-04-28T13:09:23.101Z,7.93
2023-04-28T13:11:50.571Z,6.28
2023-04-28T13:14:18.024Z,9.57
2023-04-28T13:16:45.630Z,7.20
2023-04-28T13:19:14.551Z,8.30
2023-04-28T13:21:42.842Z,8.32
2023-04-28T13:24:11.102Z,7.53
2023-04-28T13:26:40.228Z,6.38
2023-04-28T13:29:09.204Z,5.63
2023-04-28T13:31:36.793Z,6.97
2023-04-28T13:34:06.108Z,8.10
2023-04-28T13:36:33.999Z,7.07
2023-04-28T13:39:02.695Z,7.60
2023-04-28T13:41:30.832Z,5.22
2023-04-28T13:43:59.691Z,6.47
2023-04-28T13:46:28.613Z,6.45
2023-04-28T13:48:56.130Z,6.60
2023-04-28T13:51:23.984Z,7.57
2023-04-28T13:53:51.457Z,11.35
2023-04-28T13:56:19.099Z,8.10
2023-04-28T13:58:46.567Z,5.82
2023-04-28T14:01:15.413Z,6.80
2023-04-28T14:03:44.247Z,5.20
2023-04-28T14:06:12.793Z,5.13
2023-04-28T14:11:07.931Z,4.72
2023-04-28T14:13:35.695Z,4.78
2023-04-28T14:16:03.210Z,5.55
2023-04-28T14:18:33.677Z,4.82
2023-04-28T14:21:01.986Z,5.85
2023-04-28T14:23:29.456Z,6.75
2023-04-28T14:25:57.983Z,7.03
2023-04-28T14:28:25.545Z,4.22
2023-04-28T14:30:54.389Z,4.22
2023-04-28T14:33:22.155Z,4.53
2023-04-28T14:35:51.048Z,5.97
2023-04-28T14:38:18.691Z,4.35
2023-04-28T14:40:46.291Z,3.70
2023-04-28T14:43:14.679Z,3.38
2023-04-28T14:48:10.443Z,4.30
2023-04-28T14:53:07.351Z,4.80
2023-04-28T14:55:34.977Z,3.92
2023-04-28T14:58:02.865Z,4.55
2023-04-28T15:00:30.735Z,3.47
2023-04-28T15:02:58.507Z,5.38
2023-04-28T15:05:26.117Z,7.15
2023-04-28T15:07:53.601Z,4.93
2023-04-28T15:10:22.580Z,5.32
2023-04-28T15:12:50.093Z,4.53
2023-04-28T15:15:17.592Z,5.60
2023-04-28T15:17:45.292Z,6.57
2023-04-28T15:20:13.137Z,7.13
2023-04-28T15:22:40.934Z,4.70
2023-04-28T15:25:09.157Z,4.80
2023-04-28T15:27:37.957Z,6.13
2023-04-28T15:30:06.392Z,9.82
2023-04-28T15:35:02.048Z,4.25
2023-04-28T15:37:43.702Z,3.90
2023-04-28T15:40:13.200Z,3.15
2023-04-28T15:42:45.064Z,4.22
2023-04-28T15:45:13.187Z,5.68
2023-04-28T15:47:41.295Z,3.28
2023-04-28T15:50:10.713Z,3.08
2023-04-28T15:52:39.783Z,5.25
2023-04-28T15:55:08.337Z,3.10
2023-04-28T15:57:35.858Z,5.25
2023-04-28T16:00:06.274Z,4.55
2023-04-28T16:02:34.010Z,3.10
2023-04-28T16:05:02.494Z,4.45
2023-04-28T16:07:30.740Z,4.68
2023-04-28T16:09:58.766Z,3.63
2023-04-28T16:12:26.346Z,3.47
2023-04-28T16:14:54.157Z,2.67
2023-04-28T16:17:23.216Z,3.75
2023-04-28T16:19:50.809Z,4.68
2023-04-28T16:22:18.270Z,4.57
2023-04-28T16:24:46.314Z,4.13
2023-04-28T16:27:14.042Z,4.78
2023-04-28T16:29:41.691Z,5.70
2023-04-28T16:32:09.211Z,6.03
2023-04-28T16:34:38.080Z,4.97
2023-04-28T16:37:07.119Z,3.63
2023-04-28T16:39:34.782Z,3.70
2023-04-28T16:42:03.721Z,4.95
2023-04-28T16:44:31.479Z,6.28
2023-04-28T16:46:59.364Z,3.63
2023-04-28T16:49:27.119Z,3.22
2023-04-28T16:52:00.447Z,5.70
2023-04-28T16:54:29.189Z,7.47
2023-04-28T16:56:57.292Z,4.63
2023-04-28T16:59:26.382Z,5.60
2023-04-28T17:01:53.874Z,6.07
2023-04-28T17:04:21.824Z,5.60
2023-04-28T17:06:49.414Z,3.83
2023-04-28T17:09:18.328Z,5.53
2023-04-28T17:11:45.781Z,3.08
2023-04-28T17:14:13.555Z,4.15
2023-04-28T17:16:41.376Z,7.35
2023-04-28T17:19:08.832Z,4.93
2023-04-28T17:21:36.424Z,5.03
2023-04-28T17:24:04.073Z,2.83
2023-04-28T17:26:32.918Z,3.58
2023-04-28T17:29:00.515Z,3.03
2023-04-28T17:31:30.710Z,3.22
2023-04-28T17:33:59.600Z,2.83
2023-04-28T17:36:28.413Z,3.13
2023-04-28T17:38:56.570Z,2.10
2023-04-28T17:41:24.224Z,1.95
2023-04-28T17:43:53.031Z,4.15
2023-04-28T17:46:20.690Z,1.63
2023-04-28T17:48:48.141Z,1.58
2023-04-28T17:51:15.760Z,1.38
2023-04-28T17:53:43.236Z,2.75
2023-04-28T17:56:10.808Z,1.38
2023-04-28T17:58:38.374Z,1.35
2023-04-28T18:01:08.599Z,1.23
2023-04-28T18:03:37.692Z,1.17
2023-04-28T18:06:07.729Z,1.20
2023-04-28T18:08:35.429Z,2.40
2023-04-28T18:11:03.477Z,1.30
2023-04-28T18:13:31.402Z,1.55
2023-04-28T18:15:58.913Z,1.52
2023-04-28T18:18:30.257Z,0.98
2023-04-28T18:20:59.605Z,1.10
2023-04-28T18:23:27.195Z,2.80
2023-04-28T18:25:54.862Z,1.80
2023-04-28T18:28:22.555Z,1.30
2023-04-28T18:30:49.120Z,1.40
2023-04-28T18:33:19.462Z,1.27
2023-04-28T18:35:50.282Z,1.95
2023-04-28T18:38:18.248Z,1.60
2023-04-28T18:40:45.695Z,1.73
2023-04-28T18:43:13.249Z,4.40
2023-04-28T18:45:41.402Z,2.90
2023-04-28T18:48:10.649Z,2.22
2023-04-28T18:50:38.397Z,2.28
2023-04-28T18:53:08.725Z,2.03
2023-04-28T18:55:36.831Z,2.65
2023-04-28T18:58:04.597Z,2.42
2023-04-28T19:00:32.623Z,2.70
2023-04-28T19:03:00.436Z,3.15
2023-04-28T19:05:28.604Z,5.40
2023-04-28T19:07:56.098Z,2.75
2023-04-28T19:10:24.899Z,2.40
2023-04-28T19:12:52.415Z,1.60
2023-04-28T19:15:20.121Z,1.65
2023-04-28T19:17:47.603Z,2.33
2023-04-28T19:20:15.224Z,1.73
2023-04-28T19:22:43.744Z,2.40
2023-04-28T19:25:12.326Z,3.60
2023-04-28T19:27:42.822Z,1.58
2023-04-28T19:30:12.609Z,1.23
2023-04-28T19:32:41.150Z,1.55
2023-04-28T19:35:09.695Z,1.35
2023-04-28T19:40:05.830Z,1.40
2023-04-28T19:42:34.679Z,1.60
2023-04-28T19:45:03.915Z,1.65
2023-04-28T19:47:33.714Z,2.00
2023-04-28T19:50:02.026Z,2.05
2023-04-28T19:52:29.856Z,2.22
2023-04-28T19:54:57.562Z,1.33
2023-04-28T19:57:25.071Z,1.08
2023-04-28T19:59:52.995Z,1.38
2023-04-28T20:02:22.133Z,1.00
2023-04-28T20:04:50.106Z,1.58
2023-04-28T20:07:17.658Z,1.20
2023-04-28T20:09:45.479Z,2.00
2023-04-28T20:12:13.284Z,1.35
2023-04-28T20:14:40.733Z,1.67
2023-04-28T20:17:09.922Z,2.10
2023-04-28T20:19:38.793Z,1.67
2023-04-28T20:22:08.424Z,2.35
2023-04-28T20:24:36.913Z,1.15
2023-04-28T20:27:05.260Z,1.55
2023-04-28T20:29:34.825Z,1.70
2023-04-28T20:32:03.262Z,1.40
2023-04-28T20:34:31.340Z,1.15
2023-04-28T20:37:03.437Z,5.03
2023-04-28T20:39:31.225Z,1.73
2023-04-28T20:41:59.306Z,1.20
2023-04-28T20:44:26.775Z,1.88
2023-04-28T20:46:55.142Z,2.67
2023-04-28T20:49:22.635Z,2.80
2023-04-28T20:51:50.138Z,1.75
2023-04-28T20:54:19.024Z,2.05
2023-04-28T20:56:46.557Z,2.78
2023-04-28T20:59:13.988Z,2.78
2023-04-28T21:01:41.815Z,1.73
2023-04-28T21:04:09.552Z,2.35
2023-04-28T21:06:37.258Z,1.45
2023-04-28T21:09:04.883Z,5.45
2023-04-28T21:11:33.734Z,1.83
2023-04-28T21:14:01.169Z,2.88
2023-04-28T21:16:28.630Z,3.58
2023-04-28T21:18:56.589Z,2.95
2023-04-28T21:21:24.019Z,2.70
2023-04-28T21:23:51.497Z,5.43
2023-04-28T21:26:20.586Z,2.55
2023-04-28T21:28:50.183Z,1.92
2023-04-28T21:31:17.640Z,1.70
2023-04-28T21:33:45.074Z,2.53
2023-04-28T21:36:12.491Z,2.28
2023-04-28T21:38:40.007Z,3.35
2023-04-28T21:41:08.616Z,1.98
2023-04-28T21:43:36.058Z,2.10
2023-04-28T21:46:05.085Z,1.75
2023-04-28T21:48:32.764Z,3.00
2023-04-28T21:51:01.075Z,1.70
2023-04-28T21:53:28.601Z,3.03
2023-04-28T21:55:56.248Z,2.42
2023-04-28T21:58:23.728Z,1.70
2023-04-28T22:00:51.498Z,2.35
2023-04-28T22:03:20.550Z,4.07
2023-04-28T22:05:48.273Z,2.28
2023-04-28T22:08:16.860Z,2.45
2023-04-28T22:10:45.340Z,2.20
2023-04-28T22:15:40.336Z,1.58
2023-04-28T22:18:08.268Z,2.25
2023-04-28T22:20:37.106Z,2.03
2023-04-28T22:23:04.679Z,1.20
2023-04-28T22:25:32.244Z,2.47
2023-04-28T22:27:59.763Z,2.00
2023-04-28T22:30:27.211Z,1.48
2023-04-28T22:32:54.666Z,1.48
2023-04-28T22:35:22.107Z,1.50
2023-04-28T22:37:50.901Z,1.75
2023-04-28T22:40:18.662Z,1.98
2023-04-28T22:42:46.383Z,1.05
2023-04-28T22:45:14.026Z,2.05
2023-04-28T22:47:42.768Z,2.10
2023-04-28T22:50:11.343Z,0.90
2023-04-28T22:55:08.654Z,2.05
2023-04-28T22:57:36.317Z,1.83
2023-04-28T23:00:05.836Z,1.75
2023-04-28T23:02:33.685Z,2.38
2023-04-28T23:05:02.106Z,4.53
2023-04-28T23:07:29.526Z,1.65
2023-04-28T23:09:56.974Z,1.60
2023-04-28T23:12:26.453Z,1.38
2023-04-28T23:14:54.213Z,1.55
2023-04-28T23:17:21.680Z,1.73
2023-04-28T23:19:49.476Z,2.40
2023-04-28T23:22:17.209Z,2.08
2023-04-28T23:24:44.655Z,2.42
2023-04-28T23:27:12.152Z,1.75
2023-04-28T23:29:40.968Z,4.63
2023-04-28T23:32:08.514Z,2.60
2023-04-28T23:34:38.015Z,3.30
2023-04-28T23:37:05.645Z,2.75
2023-04-28T23:39:33.376Z,2.20
2023-04-28T23:42:01.681Z,1.70
2023-04-28T23:44:29.165Z,2.20
2023-04-28T23:46:58.003Z,2.58
2023-04-28T23:49:25.564Z,2.10
2023-04-28T23:51:53.012Z,1.92
2023-04-28T23:54:20.492Z,1.00
2023-04-28T23:56:48.028Z,4.05
2023-04-28T23:59:15.477Z,1.20
